createdAt,value
2018-09-24T00:00:55.796Z,9.06
2018-09-24T00:01:55.697Z,9.11
2018-09-24T00:02:55.584Z,9.03
2018-09-24T00:03:55.484Z,9.11
2018-09-24T00:04:55.385Z,9.10
2018-09-24T00:05:55.274Z,9.04
2018-09-24T00:06:55.180Z,9.13
2018-09-24T00:07:55.075Z,9.04
2018-09-24T00:08:54.975Z,9.16
2018-09-24T00:09:54.876Z,9.14
2018-09-24T00:10:54.776Z,9.28
2018-09-24T00:11:54.652Z,9.26
2018-09-24T00:12:54.553Z,9.19
2018-09-24T00:13:54.453Z,9.18
2018-09-24T00:14:54.342Z,9.18
2018-09-24T00:15:54.241Z,9.23
2018-09-24T00:16:54.144Z,9.22
2018-09-24T00:17:54.031Z,9.25
2018-09-24T00:18:53.931Z,9.18
2018-09-24T00:19:53.832Z,9.18
2018-09-24T00:20:53.732Z,9.16
2018-09-24T00:21:53.621Z,9.28
2018-09-24T00:22:53.764Z,9.22
2018-09-24T00:23:53.420Z,9.19
2018-09-24T00:24:53.309Z,9.16
2018-09-24T00:25:53.210Z,9.19
2018-09-24T00:26:53.099Z,9.23
2018-09-24T00:27:52.998Z,9.18
2018-09-24T00:28:52.899Z,9.19
2018-09-24T00:29:52.800Z,9.22
2018-09-24T00:30:52.688Z,9.25
2018-09-24T00:31:52.591Z,9.19
2018-09-24T00:32:52.488Z,9.25
2018-09-24T00:33:52.376Z,9.21
2018-09-24T00:34:52.276Z,9.14
2018-09-24T00:35:52.178Z,9.21
2018-09-24T00:36:52.069Z,9.16
2018-09-24T00:37:51.968Z,9.22
2018-09-24T00:38:51.868Z,9.16
2018-09-24T00:39:51.755Z,9.18
2018-09-24T00:40:51.655Z,9.16
2018-09-24T00:41:51.555Z,9.19
2018-09-24T00:42:51.444Z,9.06
2018-09-24T00:43:51.349Z,9.03
2018-09-24T00:44:51.260Z,9.02
2018-09-24T00:45:51.135Z,9.06
2018-09-24T00:46:51.034Z,9.08
2018-09-24T00:47:50.936Z,9.10
2018-09-24T00:48:50.822Z,9.11
2018-09-24T00:49:50.724Z,9.08
2018-09-24T00:50:50.624Z,9.16
2018-09-24T00:51:50.512Z,9.08
2018-09-24T00:52:50.411Z,9.14
2018-09-24T00:53:50.313Z,9.16
2018-09-24T00:54:50.202Z,9.03
2018-09-24T00:55:50.102Z,9.00
2018-09-24T00:56:50.003Z,9.08
2018-09-24T00:57:49.890Z,9.02
2018-09-24T00:58:49.791Z,9.00
2018-09-24T00:59:49.691Z,9.02
2018-09-24T01:00:49.580Z,8.99
2018-09-24T01:01:49.481Z,9.04
2018-09-24T01:02:49.380Z,8.91
2018-09-24T01:03:49.268Z,8.91
2018-09-24T01:04:49.168Z,8.91
2018-09-24T01:05:49.068Z,8.89
2018-09-24T01:06:48.959Z,8.89
2018-09-24T01:07:48.859Z,8.97
2018-09-24T01:08:48.759Z,8.95
2018-09-24T01:09:48.646Z,8.91
2018-09-24T01:10:48.546Z,8.89
2018-09-24T01:11:48.447Z,8.87
2018-09-24T01:12:48.336Z,8.92
2018-09-24T01:13:48.238Z,8.92
2018-09-24T01:14:48.137Z,8.94
2018-09-24T01:15:48.028Z,8.88
2018-09-24T01:16:47.925Z,8.92
2018-09-24T01:17:47.826Z,8.88
2018-09-24T01:18:47.715Z,8.95
2018-09-24T01:19:47.616Z,8.91
2018-09-24T01:20:47.516Z,8.95
2018-09-24T01:21:47.403Z,8.89
2018-09-24T01:22:47.305Z,8.91
2018-09-24T01:23:47.205Z,8.87
2018-09-24T01:24:47.095Z,8.85
2018-09-24T01:25:46.993Z,8.91
2018-09-24T01:26:46.894Z,8.88
2018-09-24T01:27:46.782Z,8.94
2018-09-24T01:28:46.681Z,8.79
2018-09-24T01:29:46.583Z,8.87
2018-09-24T01:30:46.472Z,8.85
2018-09-24T01:31:46.375Z,8.87
2018-09-24T01:32:46.261Z,8.84
2018-09-24T01:33:46.160Z,8.85
2018-09-24T01:34:46.060Z,8.82
2018-09-24T01:35:45.960Z,8.81
2018-09-24T01:36:45.850Z,8.85
2018-09-24T01:37:46.001Z,8.74
2018-09-24T01:38:45.644Z,8.82
2018-09-24T01:39:45.538Z,8.84
2018-09-24T01:40:45.438Z,8.79
2018-09-24T01:41:45.328Z,8.84
2018-09-24T01:42:45.228Z,8.74
2018-09-24T01:43:45.130Z,8.71
2018-09-24T01:44:45.017Z,8.76
2018-09-24T01:45:44.916Z,8.76
2018-09-24T01:46:44.817Z,8.70
2018-09-24T01:47:44.706Z,8.70
2018-09-24T01:48:44.606Z,8.71
2018-09-24T01:49:44.507Z,8.71
2018-09-24T01:50:44.395Z,8.66
2018-09-24T01:51:44.294Z,8.66
2018-09-24T01:52:44.195Z,8.64
2018-09-24T01:53:44.086Z,8.74
2018-09-24T01:54:43.985Z,8.69
2018-09-24T01:55:43.886Z,8.64
2018-09-24T01:56:43.772Z,8.63
2018-09-24T01:57:43.673Z,8.64
2018-09-24T01:58:43.573Z,8.60
2018-09-24T01:59:43.462Z,8.63
2018-09-24T02:00:43.363Z,8.64
2018-09-24T02:01:43.252Z,8.53
2018-09-24T02:02:43.153Z,8.53
2018-09-24T02:03:43.052Z,8.55
2018-09-24T02:04:42.952Z,8.53
2018-09-24T02:05:42.841Z,8.58
2018-09-24T02:06:42.742Z,8.63
2018-09-24T02:07:42.630Z,8.56
2018-09-24T02:08:42.529Z,8.55
2018-09-24T02:09:42.430Z,8.58
2018-09-24T02:10:42.319Z,8.58
2018-09-24T02:11:42.220Z,8.64
2018-09-24T02:12:42.121Z,8.60
2018-09-24T02:13:42.009Z,8.66
2018-09-24T02:14:41.910Z,8.60
2018-09-24T02:15:41.808Z,8.52
2018-09-24T02:16:41.697Z,8.48
2018-09-24T02:17:41.897Z,8.58
2018-09-24T02:18:41.498Z,8.60
2018-09-24T02:19:41.386Z,8.53
2018-09-24T02:20:41.286Z,8.52
2018-09-24T02:21:41.176Z,8.49
2018-09-24T02:22:41.076Z,8.60
2018-09-24T02:23:40.980Z,8.48
2018-09-24T02:24:40.863Z,8.45
2018-09-24T02:25:40.764Z,8.49
2018-09-24T02:26:40.665Z,8.34
2018-09-24T02:27:40.553Z,8.41
2018-09-24T02:28:40.455Z,8.44
2018-09-24T02:29:40.355Z,8.48
2018-09-24T02:30:40.242Z,8.45
2018-09-24T02:31:40.143Z,8.42
2018-09-24T02:32:40.032Z,8.44
2018-09-24T02:33:39.945Z,8.51
2018-09-24T02:34:39.832Z,8.46
2018-09-24T02:35:39.720Z,8.48
2018-09-24T02:36:39.620Z,8.49
2018-09-24T02:37:39.521Z,8.53
2018-09-24T02:38:39.413Z,8.38
2018-09-24T02:39:39.310Z,8.51
2018-09-24T02:40:39.211Z,8.44
2018-09-24T02:41:39.100Z,8.45
2018-09-24T02:42:39.000Z,8.44
2018-09-24T02:43:38.901Z,8.51
2018-09-24T02:44:38.791Z,8.38
2018-09-24T02:45:38.689Z,8.45
2018-09-24T02:46:38.578Z,8.45
2018-09-24T02:47:38.477Z,8.38
2018-09-24T02:48:38.378Z,8.38
2018-09-24T02:49:38.267Z,8.49
2018-09-24T02:50:38.167Z,8.42
2018-09-24T02:51:38.067Z,8.46
2018-09-24T02:52:37.957Z,8.44
2018-09-24T02:53:37.855Z,8.42
2018-09-24T02:54:37.756Z,8.33
2018-09-24T02:55:37.648Z,8.33
2018-09-24T02:56:37.545Z,8.44
2018-09-24T02:57:37.687Z,8.36
2018-09-24T02:58:37.333Z,8.37
2018-09-24T02:59:37.235Z,8.41
2018-09-24T03:00:37.122Z,8.46
2018-09-24T03:01:37.023Z,8.34
2018-09-24T03:02:36.928Z,8.33
2018-09-24T03:03:36.811Z,8.36
2018-09-24T03:04:36.712Z,8.36
2018-09-24T03:05:36.600Z,8.41
2018-09-24T03:06:36.501Z,8.37
2018-09-24T03:07:36.402Z,8.30
2018-09-24T03:08:36.290Z,8.31
2018-09-24T03:09:36.189Z,8.34
2018-09-24T03:10:36.095Z,8.31
2018-09-24T03:11:35.981Z,8.44
2018-09-24T03:12:35.883Z,8.30
2018-09-24T03:13:35.768Z,8.27
2018-09-24T03:14:35.681Z,8.33
2018-09-24T03:15:35.568Z,8.36
2018-09-24T03:16:35.457Z,8.34
2018-09-24T03:17:35.357Z,8.33
2018-09-24T03:18:35.258Z,8.26
2018-09-24T03:19:35.144Z,8.33
2018-09-24T03:20:35.045Z,8.34
2018-09-24T03:21:34.947Z,8.27
2018-09-24T03:22:34.837Z,8.34
2018-09-24T03:23:34.735Z,8.36
2018-09-24T03:24:34.623Z,8.31
2018-09-24T03:25:34.524Z,8.37
2018-09-24T03:26:34.425Z,8.27
2018-09-24T03:27:34.313Z,8.34
2018-09-24T03:28:34.213Z,8.36
2018-09-24T03:29:34.114Z,8.33
2018-09-24T03:30:34.018Z,8.27
2018-09-24T03:31:33.903Z,8.36
2018-09-24T03:32:33.792Z,8.34
2018-09-24T03:33:33.691Z,8.34
2018-09-24T03:34:33.592Z,8.26
2018-09-24T03:35:33.480Z,8.33
2018-09-24T03:36:33.381Z,8.31
2018-09-24T03:37:33.282Z,8.37
2018-09-24T03:38:33.169Z,8.31
2018-09-24T03:39:33.075Z,8.33
2018-09-24T03:40:32.957Z,8.19
2018-09-24T03:41:32.857Z,8.16
2018-09-24T03:42:32.758Z,8.18
2018-09-24T03:43:32.647Z,8.18
2018-09-24T03:44:32.548Z,8.16
2018-09-24T03:45:32.451Z,8.20
2018-09-24T03:46:32.336Z,8.19
2018-09-24T03:47:32.235Z,8.33
2018-09-24T03:48:32.125Z,8.30
2018-09-24T03:49:32.025Z,8.31
2018-09-24T03:50:31.926Z,8.36
2018-09-24T03:51:31.813Z,8.34
2018-09-24T03:52:31.713Z,8.30
2018-09-24T03:53:31.614Z,8.13
2018-09-24T03:54:31.503Z,8.18
2018-09-24T03:55:31.404Z,8.20
2018-09-24T03:56:31.291Z,8.20
2018-09-24T03:57:31.191Z,8.24
2018-09-24T03:58:31.091Z,8.20
2018-09-24T03:59:30.980Z,8.23
2018-09-24T04:00:30.882Z,8.16
2018-09-24T04:01:30.782Z,8.26
2018-09-24T04:02:30.918Z,8.18
2018-09-24T04:03:30.570Z,8.24
2018-09-24T04:04:30.459Z,8.24
2018-09-24T04:05:30.359Z,8.20
2018-09-24T04:06:30.260Z,8.20
2018-09-24T04:07:30.147Z,8.18
2018-09-24T04:08:30.047Z,8.20
2018-09-24T04:09:29.991Z,8.19
2018-09-24T04:10:29.837Z,8.23
2018-09-24T04:11:29.738Z,8.26
2018-09-24T04:12:29.625Z,8.16
2018-09-24T04:13:29.526Z,8.20
2018-09-24T04:14:29.428Z,8.19
2018-09-24T04:15:29.316Z,8.20
2018-09-24T04:16:29.215Z,8.16
2018-09-24T04:17:29.121Z,8.13
2018-09-24T04:18:29.004Z,8.10
2018-09-24T04:19:28.914Z,8.13
2018-09-24T04:20:28.793Z,8.15
2018-09-24T04:21:28.693Z,8.20
2018-09-24T04:22:28.845Z,8.16
2018-09-24T04:23:28.481Z,8.09
2018-09-24T04:24:28.382Z,8.18
2018-09-24T04:25:28.272Z,8.23
2018-09-24T04:26:28.173Z,8.18
2018-09-24T04:27:28.071Z,8.19
2018-09-24T04:28:27.963Z,8.28
2018-09-24T04:29:27.860Z,8.23
2018-09-24T04:30:27.762Z,8.23
2018-09-24T04:31:27.649Z,8.19
2018-09-24T04:32:27.800Z,8.23
2018-09-24T04:33:27.438Z,8.19
2018-09-24T04:34:27.337Z,8.18
2018-09-24T04:35:27.238Z,8.19
2018-09-24T04:36:27.128Z,8.20
2018-09-24T04:37:27.031Z,8.23
2018-09-24T04:38:26.922Z,8.08
2018-09-24T04:39:26.826Z,8.15
2018-09-24T04:40:26.715Z,8.09
2018-09-24T04:41:26.605Z,8.10
2018-09-24T04:42:26.755Z,8.03
2018-09-24T04:43:26.406Z,8.15
2018-09-24T04:44:26.294Z,8.20
2018-09-24T04:45:26.193Z,8.23
2018-09-24T04:46:26.082Z,8.19
2018-09-24T04:47:25.984Z,8.16
2018-09-24T04:48:25.883Z,8.26
2018-09-24T04:49:25.772Z,8.26
2018-09-24T04:50:25.672Z,8.23
2018-09-24T04:51:25.572Z,8.26
2018-09-24T04:52:25.482Z,8.24
2018-09-24T04:53:25.363Z,8.23
2018-09-24T04:54:25.249Z,8.20
2018-09-24T04:55:25.150Z,8.10
2018-09-24T04:56:25.050Z,8.13
2018-09-24T04:57:24.938Z,8.08
2018-09-24T04:58:24.839Z,8.10
2018-09-24T04:59:24.727Z,8.19
2018-09-24T05:00:24.628Z,8.13
2018-09-24T05:01:24.529Z,8.18
2018-09-24T05:02:24.417Z,8.20
2018-09-24T05:03:24.317Z,8.36
2018-09-24T05:04:24.209Z,8.37
2018-09-24T05:05:24.104Z,8.33
2018-09-24T05:06:24.007Z,8.33
2018-09-24T05:07:23.897Z,8.30
2018-09-24T05:08:23.794Z,8.36
2018-09-24T05:09:23.696Z,8.36
2018-09-24T05:10:23.583Z,8.41
2018-09-24T05:11:23.487Z,8.34
2018-09-24T05:12:23.373Z,8.49
2018-09-24T05:13:23.278Z,8.55
2018-09-24T05:14:23.173Z,8.53
2018-09-24T05:15:23.061Z,8.55
2018-09-24T05:16:23.013Z,8.60
2018-09-24T05:17:22.862Z,8.69
2018-09-24T05:18:22.754Z,8.73
2018-09-24T05:19:22.653Z,8.87
2018-09-24T05:20:22.540Z,8.79
2018-09-24T05:21:22.438Z,8.78
2018-09-24T05:22:22.353Z,8.79
2018-09-24T05:23:22.230Z,8.87
2018-09-24T05:24:22.131Z,8.89
2018-09-24T05:25:22.031Z,9.03
2018-09-24T05:26:21.917Z,9.06
2018-09-24T05:27:22.099Z,9.14
2018-09-24T05:28:21.718Z,9.11
2018-09-24T05:29:21.607Z,9.19
2018-09-24T05:30:21.507Z,9.18
2018-09-24T05:31:21.408Z,9.18
2018-09-24T05:32:21.374Z,9.28
2018-09-24T05:33:21.195Z,9.32
2018-09-24T05:34:21.105Z,9.43
2018-09-24T05:35:20.986Z,9.58
2018-09-24T05:36:20.886Z,9.48
2018-09-24T05:37:21.036Z,9.69
2018-09-24T05:38:20.674Z,9.32
2018-09-24T05:39:20.574Z,9.16
2018-09-24T05:40:20.474Z,9.47
2018-09-24T05:41:20.428Z,9.64
2018-09-24T05:42:20.264Z,9.62
2018-09-24T05:43:20.165Z,9.61
2018-09-24T05:44:20.052Z,9.91
2018-09-24T05:45:19.953Z,10.01
2018-09-24T05:46:19.854Z,10.07
2018-09-24T05:47:19.753Z,10.15
2018-09-24T05:48:19.643Z,10.17
2018-09-24T05:49:19.544Z,10.09
2018-09-24T05:50:19.445Z,10.05
2018-09-24T05:51:19.331Z,10.23
2018-09-24T05:52:19.232Z,10.25
2018-09-24T05:53:19.131Z,10.23
2018-09-24T05:54:19.096Z,10.28
2018-09-24T05:55:18.924Z,10.28
2018-09-24T05:56:18.822Z,10.25
2018-09-24T05:57:18.976Z,10.38
2018-09-24T05:58:18.612Z,10.44
2018-09-24T05:59:18.510Z,10.59
2018-09-24T06:00:18.412Z,10.57
2018-09-24T06:01:18.312Z,10.74
2018-09-24T06:02:18.201Z,10.61
2018-09-24T06:03:18.100Z,10.75
2018-09-24T06:04:18.002Z,10.89
2018-09-24T06:05:17.901Z,10.87
2018-09-24T06:06:17.790Z,10.92
2018-09-24T06:07:17.692Z,10.79
2018-09-24T06:08:17.605Z,10.54
2018-09-24T06:09:17.505Z,10.75
2018-09-24T06:10:17.381Z,10.87
2018-09-24T06:11:17.281Z,10.97
2018-09-24T06:12:17.181Z,10.93
2018-09-24T06:13:17.082Z,10.90
2018-09-24T06:14:16.982Z,11.04
2018-09-24T06:15:16.871Z,11.08
2018-09-24T06:16:16.773Z,11.12
2018-09-24T06:17:16.670Z,11.05
2018-09-24T06:18:16.572Z,11.14
2018-09-24T06:19:16.473Z,11.12
2018-09-24T06:20:16.361Z,11.30
2018-09-24T06:21:16.262Z,11.08
2018-09-24T06:22:16.163Z,11.14
2018-09-24T06:23:16.063Z,10.86
2018-09-24T06:24:15.951Z,10.56
2018-09-24T06:25:15.851Z,10.31
2018-09-24T06:26:15.751Z,9.97
2018-09-24T06:27:15.652Z,9.83
2018-09-24T06:28:15.588Z,9.59
2018-09-24T06:29:15.441Z,9.64
2018-09-24T06:30:15.342Z,9.59
2018-09-24T06:31:15.243Z,9.64
2018-09-24T06:32:15.143Z,9.64
2018-09-24T06:33:15.044Z,9.62
2018-09-24T06:34:14.942Z,9.66
2018-09-24T06:35:14.831Z,9.58
2018-09-24T06:36:14.733Z,9.68
2018-09-24T06:37:14.640Z,9.65
2018-09-24T06:38:14.522Z,9.68
2018-09-24T06:39:14.422Z,9.77
2018-09-24T06:40:14.324Z,9.98
2018-09-24T06:41:14.275Z,10.10
2018-09-24T06:42:14.111Z,10.17
2018-09-24T06:43:14.011Z,10.16
2018-09-24T06:44:13.911Z,10.23
2018-09-24T06:45:13.826Z,10.33
2018-09-24T06:46:13.726Z,10.64
2018-09-24T06:47:13.602Z,10.97
2018-09-24T06:48:13.502Z,11.08
2018-09-24T06:49:13.402Z,11.30
2018-09-24T06:50:13.294Z,11.30
2018-09-24T06:51:13.190Z,11.14
2018-09-24T06:52:13.092Z,11.10
2018-09-24T06:53:12.992Z,10.78
2018-09-24T06:54:12.895Z,10.68
2018-09-24T06:55:12.781Z,10.63
2018-09-24T06:56:12.686Z,10.37
2018-09-24T06:57:12.582Z,10.41
2018-09-24T06:58:12.472Z,10.44
2018-09-24T06:59:12.373Z,10.37
2018-09-24T07:00:12.284Z,10.34
2018-09-24T07:01:12.171Z,10.22
2018-09-24T07:02:12.060Z,10.26
2018-09-24T07:03:11.961Z,10.25
2018-09-24T07:04:11.861Z,10.37
2018-09-24T07:05:11.762Z,10.44
2018-09-24T07:06:11.650Z,10.59
2018-09-24T07:07:11.551Z,10.56
2018-09-24T07:08:11.450Z,10.48
2018-09-24T07:09:11.394Z,10.48
2018-09-24T07:10:11.244Z,10.51
2018-09-24T07:11:11.190Z,10.42
2018-09-24T07:12:11.045Z,10.48
2018-09-24T07:13:10.941Z,10.49
2018-09-24T07:14:10.833Z,10.46
2018-09-24T07:15:10.728Z,10.56
2018-09-24T07:16:10.631Z,10.60
2018-09-24T07:17:10.530Z,10.56
2018-09-24T07:18:10.420Z,10.60
2018-09-24T07:19:10.321Z,10.53
2018-09-24T07:20:10.221Z,10.64
2018-09-24T07:21:10.121Z,10.76
2018-09-24T07:22:10.011Z,10.76
2018-09-24T07:23:09.911Z,10.78
2018-09-24T07:24:09.809Z,10.74
2018-09-24T07:25:09.723Z,10.81
2018-09-24T07:26:09.623Z,10.75
2018-09-24T07:27:09.501Z,10.90
2018-09-24T07:28:09.489Z,11.02
2018-09-24T07:29:09.300Z,11.07
2018-09-24T07:30:09.203Z,10.97
2018-09-24T07:31:09.089Z,11.19
2018-09-24T07:32:08.989Z,11.12
2018-09-24T07:33:08.943Z,11.11
2018-09-24T07:34:08.790Z,11.14
2018-09-24T07:35:08.680Z,11.32
2018-09-24T07:36:08.579Z,11.50
2018-09-24T07:37:08.479Z,11.36
2018-09-24T07:38:08.381Z,11.33
2018-09-24T07:39:08.283Z,11.19
2018-09-24T07:40:08.168Z,11.26
2018-09-24T07:41:08.069Z,11.29
2018-09-24T07:42:07.970Z,11.12
2018-09-24T07:43:07.897Z,11.15
2018-09-24T07:44:07.773Z,11.26
2018-09-24T07:45:07.660Z,11.40
2018-09-24T07:46:07.562Z,11.51
2018-09-24T07:47:07.461Z,11.54
2018-09-24T07:48:07.365Z,11.40
2018-09-24T07:49:07.253Z,11.36
2018-09-24T07:50:07.149Z,11.30
2018-09-24T07:51:07.050Z,11.33
2018-09-24T07:52:06.951Z,11.48
2018-09-24T07:53:06.850Z,11.52
2018-09-24T07:54:06.751Z,11.68
2018-09-24T07:55:06.640Z,11.73
2018-09-24T07:56:06.540Z,11.75
2018-09-24T07:57:06.441Z,11.63
2018-09-24T07:58:06.342Z,11.57
2018-09-24T07:59:06.242Z,11.66
2018-09-24T08:00:06.131Z,11.75
2018-09-24T08:01:06.165Z,11.72
2018-09-24T08:02:05.932Z,11.80
2018-09-24T08:03:05.833Z,11.88
2018-09-24T08:04:05.732Z,12.02
2018-09-24T08:05:05.635Z,11.91
2018-09-24T08:06:05.523Z,12.02
2018-09-24T08:07:05.433Z,11.95
2018-09-24T08:08:05.323Z,12.02
2018-09-24T08:09:05.224Z,11.77
2018-09-24T08:10:05.124Z,11.73
2018-09-24T08:11:05.024Z,11.86
2018-09-24T08:12:04.912Z,12.10
2018-09-24T08:13:04.865Z,12.09
2018-09-24T08:14:04.714Z,12.22
2018-09-24T08:15:04.618Z,12.18
2018-09-24T08:16:04.515Z,12.18
2018-09-24T08:17:04.417Z,12.13
2018-09-24T08:18:04.340Z,12.03
2018-09-24T08:19:04.203Z,12.10
2018-09-24T08:20:04.107Z,12.02
2018-09-24T08:21:04.024Z,12.17
2018-09-24T08:22:04.156Z,12.42
2018-09-24T08:23:03.805Z,12.55
2018-09-24T08:24:03.694Z,12.57
2018-09-24T08:25:03.596Z,12.43
2018-09-24T08:26:03.495Z,12.28
2018-09-24T08:27:03.395Z,12.42
2018-09-24T08:28:03.295Z,12.46
2018-09-24T08:29:03.197Z,12.54
2018-09-24T08:30:03.103Z,12.61
2018-09-24T08:31:02.990Z,12.75
2018-09-24T08:32:02.889Z,12.75
2018-09-24T08:33:02.789Z,12.75
2018-09-24T08:34:02.687Z,12.57
2018-09-24T08:35:02.588Z,12.53
2018-09-24T08:36:02.488Z,12.46
2018-09-24T08:37:02.376Z,12.53
2018-09-24T08:38:02.302Z,12.54
2018-09-24T08:39:02.177Z,12.62
2018-09-24T08:40:02.077Z,12.47
2018-09-24T08:41:01.978Z,12.53
2018-09-24T08:42:01.879Z,12.42
2018-09-24T08:43:01.778Z,12.54
2018-09-24T08:44:01.693Z,12.50
2018-09-24T08:45:01.568Z,12.65
2018-09-24T08:46:01.469Z,12.72
2018-09-24T08:47:01.370Z,12.85
2018-09-24T08:48:01.277Z,13.09
2018-09-24T08:49:01.171Z,13.27
2018-09-24T08:50:01.060Z,13.42
2018-09-24T08:51:00.958Z,13.38
2018-09-24T08:52:00.858Z,13.35
2018-09-24T08:53:00.759Z,13.52
2018-09-24T08:54:00.659Z,13.47
2018-09-24T08:55:00.562Z,13.44
2018-09-24T08:56:00.461Z,13.53
2018-09-24T08:57:00.392Z,13.44
2018-09-24T08:58:00.253Z,13.44
2018-09-24T08:59:00.151Z,13.44
2018-09-24T09:00:00.052Z,13.30
2018-09-24T09:00:59.953Z,13.28
2018-09-24T09:01:59.853Z,13.27
2018-09-24T09:02:59.754Z,13.27
2018-09-24T09:03:59.654Z,13.44
2018-09-24T09:04:59.555Z,13.46
2018-09-24T09:05:59.455Z,13.39
2018-09-24T09:06:59.343Z,13.30
2018-09-24T09:07:59.243Z,13.44
2018-09-24T09:08:59.143Z,13.46
2018-09-24T09:09:59.043Z,13.74
2018-09-24T09:10:58.944Z,13.79
2018-09-24T09:11:58.845Z,13.86
2018-09-24T09:12:58.746Z,13.87
2018-09-24T09:13:58.646Z,13.96
2018-09-24T09:14:58.547Z,14.17
2018-09-24T09:15:58.447Z,14.12
2018-09-24T09:16:58.348Z,13.93
2018-09-24T09:17:58.237Z,13.74
2018-09-24T09:18:58.139Z,13.83
2018-09-24T09:19:58.038Z,13.92
2018-09-24T09:20:57.938Z,13.90
2018-09-24T09:21:57.839Z,13.93
2018-09-24T09:22:57.743Z,13.68
2018-09-24T09:23:57.651Z,13.75
2018-09-24T09:24:57.541Z,13.78
2018-09-24T09:25:57.442Z,13.57
2018-09-24T09:26:57.343Z,13.42
2018-09-24T09:27:57.242Z,13.20
2018-09-24T09:28:57.142Z,13.15
2018-09-24T09:29:57.044Z,13.25
2018-09-24T09:30:56.944Z,13.50
2018-09-24T09:31:56.846Z,13.67
2018-09-24T09:32:56.746Z,13.74
2018-09-24T09:33:56.645Z,14.10
2018-09-24T09:34:56.547Z,14.15
2018-09-24T09:35:56.434Z,14.32
2018-09-24T09:36:56.340Z,14.47
2018-09-24T09:37:56.235Z,14.58
2018-09-24T09:38:56.136Z,14.58
2018-09-24T09:39:56.037Z,14.43
2018-09-24T09:40:55.998Z,14.30
2018-09-24T09:41:55.837Z,14.22
2018-09-24T09:42:55.738Z,14.05
2018-09-24T09:43:55.638Z,14.03
2018-09-24T09:44:55.539Z,14.07
2018-09-24T09:45:55.439Z,13.74
2018-09-24T09:46:55.389Z,13.90
2018-09-24T09:47:55.253Z,14.04
2018-09-24T09:48:55.140Z,14.07
2018-09-24T09:49:55.044Z,14.33
2018-09-24T09:50:54.943Z,14.40
2018-09-24T09:51:54.842Z,14.48
2018-09-24T09:52:54.743Z,14.32
2018-09-24T09:53:54.645Z,14.22
2018-09-24T09:54:54.546Z,14.10
2018-09-24T09:55:54.447Z,14.08
2018-09-24T09:56:54.350Z,14.04
2018-09-24T09:57:54.246Z,14.30
2018-09-24T09:58:54.146Z,14.53
2018-09-24T09:59:54.047Z,14.63
2018-09-24T10:00:53.947Z,14.69
2018-09-24T10:01:53.848Z,14.72
2018-09-24T10:02:53.749Z,14.70
2018-09-24T10:03:53.649Z,14.55
2018-09-24T10:04:53.590Z,14.54
2018-09-24T10:05:53.450Z,14.47
2018-09-24T10:06:53.351Z,14.29
2018-09-24T10:07:53.252Z,14.23
2018-09-24T10:08:53.152Z,14.07
2018-09-24T10:09:53.053Z,14.26
2018-09-24T10:10:52.953Z,14.37
2018-09-24T10:11:52.855Z,14.54
2018-09-24T10:12:52.755Z,14.73
2018-09-24T10:13:52.655Z,14.58
2018-09-24T10:14:52.556Z,14.47
2018-09-24T10:15:52.457Z,14.69
2018-09-24T10:16:52.357Z,14.91
2018-09-24T10:17:52.258Z,14.82
2018-09-24T10:18:52.159Z,14.99
2018-09-24T10:19:52.058Z,15.31
2018-09-24T10:20:51.959Z,15.11
2018-09-24T10:21:51.860Z,14.82
2018-09-24T10:22:51.761Z,14.69
2018-09-24T10:23:51.661Z,14.18
2018-09-24T10:24:51.561Z,14.00
2018-09-24T10:25:51.462Z,13.99
2018-09-24T10:26:51.362Z,14.00
2018-09-24T10:27:51.263Z,14.33
2018-09-24T10:28:51.163Z,14.44
2018-09-24T10:29:51.064Z,14.53
2018-09-24T10:30:50.969Z,14.62
2018-09-24T10:31:50.866Z,14.55
2018-09-24T10:32:50.781Z,14.47
2018-09-24T10:33:50.716Z,14.18
2018-09-24T10:34:50.569Z,13.95
2018-09-24T10:35:50.469Z,14.07
2018-09-24T10:36:50.369Z,14.18
2018-09-24T10:37:50.271Z,14.29
2018-09-24T10:38:50.169Z,14.30
2018-09-24T10:39:50.074Z,14.35
2018-09-24T10:40:49.973Z,14.36
2018-09-24T10:41:49.872Z,14.36
2018-09-24T10:42:49.772Z,14.36
2018-09-24T10:43:49.673Z,14.43
2018-09-24T10:44:49.572Z,14.54
2018-09-24T10:45:49.473Z,14.62
2018-09-24T10:46:49.374Z,14.63
2018-09-24T10:47:49.280Z,14.58
2018-09-24T10:48:49.176Z,14.43
2018-09-24T10:49:49.076Z,14.59
2018-09-24T10:50:48.976Z,14.82
2018-09-24T10:51:48.877Z,14.63
2018-09-24T10:52:48.825Z,14.62
2018-09-24T10:53:48.678Z,14.51
2018-09-24T10:54:48.579Z,14.43
2018-09-24T10:55:48.532Z,14.54
2018-09-24T10:56:48.380Z,14.58
2018-09-24T10:57:48.280Z,14.58
2018-09-24T10:58:48.182Z,14.53
2018-09-24T10:59:48.081Z,14.63
2018-09-24T11:00:47.984Z,14.62
2018-09-24T11:01:47.883Z,14.78
2018-09-24T11:02:47.783Z,14.69
2018-09-24T11:03:47.684Z,14.73
2018-09-24T11:04:47.626Z,14.86
2018-09-24T11:05:47.486Z,14.92
2018-09-24T11:06:47.385Z,14.94
2018-09-24T11:07:47.286Z,14.86
2018-09-24T11:08:47.186Z,14.89
2018-09-24T11:09:47.086Z,14.81
2018-09-24T11:10:46.979Z,14.94
2018-09-24T11:11:46.876Z,14.91
2018-09-24T11:12:46.776Z,14.86
2018-09-24T11:13:46.680Z,14.65
2018-09-24T11:14:46.578Z,14.50
2018-09-24T11:15:46.555Z,14.44
2018-09-24T11:16:46.535Z,14.51
2018-09-24T11:17:46.490Z,14.45
2018-09-24T11:18:46.186Z,14.37
2018-09-24T11:19:46.081Z,14.40
2018-09-24T11:20:45.981Z,14.45
2018-09-24T11:21:45.882Z,14.41
2018-09-24T11:22:45.782Z,14.43
2018-09-24T11:23:45.755Z,14.51
2018-09-24T11:24:45.583Z,14.40
2018-09-24T11:25:45.484Z,14.45
2018-09-24T11:26:45.390Z,14.36
2018-09-24T11:27:45.286Z,14.44
2018-09-24T11:28:45.185Z,14.44
2018-09-24T11:29:45.103Z,14.68
2018-09-24T11:30:44.987Z,14.91
2018-09-24T11:31:44.888Z,15.00
2018-09-24T11:32:44.788Z,14.94
2018-09-24T11:33:44.688Z,15.14
2018-09-24T11:34:44.589Z,15.27
2018-09-24T11:35:44.488Z,15.27
2018-09-24T11:36:44.392Z,15.59
2018-09-24T11:37:44.295Z,15.77
2018-09-24T11:38:44.191Z,15.94
2018-09-24T11:39:44.092Z,15.90
2018-09-24T11:40:43.981Z,16.15
2018-09-24T11:41:43.893Z,16.00
2018-09-24T11:42:43.794Z,15.67
2018-09-24T11:43:43.682Z,15.51
2018-09-24T11:44:43.594Z,15.37
2018-09-24T11:45:43.495Z,15.40
2018-09-24T11:46:43.433Z,15.36
2018-09-24T11:47:43.299Z,15.43
2018-09-24T11:48:43.198Z,15.17
2018-09-24T11:49:43.097Z,15.03
2018-09-24T11:50:43.002Z,14.92
2018-09-24T11:51:42.899Z,15.14
2018-09-24T11:52:42.799Z,15.18
2018-09-24T11:53:42.700Z,15.33
2018-09-24T11:54:42.600Z,15.40
2018-09-24T11:55:42.500Z,15.64
2018-09-24T11:56:42.402Z,15.67
2018-09-24T11:57:42.302Z,15.77
2018-09-24T11:58:42.202Z,15.90
2018-09-24T11:59:42.103Z,15.82
2018-09-24T12:00:42.004Z,15.80
2018-09-24T12:01:41.904Z,15.80
2018-09-24T12:02:41.805Z,15.70
2018-09-24T12:03:41.706Z,15.77
2018-09-24T12:04:41.611Z,15.97
2018-09-24T12:05:41.506Z,16.10
2018-09-24T12:06:41.410Z,16.09
2018-09-24T12:07:41.307Z,16.00
2018-09-24T12:08:41.208Z,15.84
2018-09-24T12:09:41.123Z,15.61
2018-09-24T12:10:41.033Z,15.55
2018-09-24T12:11:40.922Z,15.67
2018-09-24T12:12:40.822Z,15.42
2018-09-24T12:13:40.723Z,15.44
2018-09-24T12:14:40.623Z,15.51
2018-09-24T12:15:40.523Z,15.46
2018-09-24T12:16:40.424Z,15.47
2018-09-24T12:17:40.326Z,15.49
2018-09-24T12:18:40.226Z,15.49
2018-09-24T12:19:40.126Z,15.52
2018-09-24T12:20:40.027Z,15.51
2018-09-24T12:21:39.927Z,15.52
2018-09-24T12:22:39.831Z,15.49
2018-09-24T12:23:39.729Z,15.46
2018-09-24T12:24:39.631Z,15.07
2018-09-24T12:25:39.543Z,14.78
2018-09-24T12:26:39.444Z,13.96
2018-09-24T12:27:39.351Z,13.47
2018-09-24T12:28:39.245Z,13.23
2018-09-24T12:29:39.146Z,12.73
2018-09-24T12:30:39.046Z,12.62
2018-09-24T12:31:38.947Z,11.87
2018-09-24T12:32:38.846Z,11.41
2018-09-24T12:33:38.748Z,10.96
2018-09-24T12:34:38.651Z,10.60
2018-09-24T12:35:38.550Z,10.46
2018-09-24T12:36:38.449Z,10.34
2018-09-24T12:37:38.351Z,10.10
2018-09-24T12:38:38.251Z,9.97
2018-09-24T12:39:38.152Z,9.82
2018-09-24T12:40:38.051Z,9.68
2018-09-24T12:41:37.951Z,9.58
2018-09-24T12:42:37.852Z,9.62
2018-09-24T12:43:37.753Z,9.46
2018-09-24T12:44:37.642Z,9.54
2018-09-24T12:45:37.542Z,9.64
2018-09-24T12:46:37.442Z,9.59
2018-09-24T12:47:37.331Z,9.62
2018-09-24T12:48:37.232Z,9.83
2018-09-24T12:49:37.132Z,9.95
2018-09-24T12:50:37.032Z,10.13
2018-09-24T12:51:36.933Z,10.31
2018-09-24T12:52:36.834Z,10.23
2018-09-24T12:53:36.721Z,10.25
2018-09-24T12:54:36.622Z,10.42
2018-09-24T12:55:36.523Z,10.44
2018-09-24T12:56:36.422Z,10.34
2018-09-24T12:57:36.325Z,10.38
2018-09-24T12:58:36.212Z,10.37
2018-09-24T12:59:36.112Z,10.41
2018-09-24T13:00:36.013Z,10.33
2018-09-24T13:01:35.913Z,10.37
2018-09-24T13:02:35.814Z,10.38
2018-09-24T13:03:35.702Z,10.35